Time;durP1;ratioP1;P1;durP2;ratioP2;P2;SDS_P1;SDS_P2;PMS_P1;PMS_P2;Temp;Humidity;BMP_temperature;BMP_pressure;BME280_temperature;BME280_humidity;BME280_pressure;Samples;Min_cycle;Max_cycle;Signal;HPM_P1;HPM_P2
2021/01/20 00:01:41;;;;;;;7.45;5.05;;;;;;;;;;5034053;28;20025;-69
2021/01/20 00:04:06;;;;;;;7.53;5.13;;;;;;;;;;5033908;28;20111;-69
2021/01/20 00:06:32;;;;;;;6.57;4.93;;;;;;;;;;5033725;28;20488;-70
2021/01/20 00:08:57;;;;;;;6.80;5.03;;;;;;;;;;5032479;28;20026;-69
2021/01/20 00:11:25;;;;;;;7.47;4.80;;;;;;;;;;5032508;28;20104;-70
2021/01/20 00:13:52;;;;;;;6.57;4.78;;;;;;;;;;5033771;28;20067;-70
2021/01/20 00:16:18;;;;;;;6.95;4.40;;;;;;;;;;5033693;28;20477;-69
2021/01/20 00:18:44;;;;;;;6.50;4.78;;;;;;;;;;5033709;28;20029;-70
2021/01/20 00:21:09;;;;;;;6.60;4.65;;;;;;;;;;5033832;28;20417;-70
2021/01/20 00:23:35;;;;;;;6.45;5.22;;;;;;;;;;5032785;28;20029;-71
2021/01/20 00:26:00;;;;;;;7.50;4.82;;;;;;;;;;5033569;28;20064;-70
2021/01/20 00:28:26;;;;;;;8.63;5.30;;;;;;;;;;5033526;28;20018;-70
2021/01/20 00:30:55;;;;;;;6.40;4.60;;;;;;;;;;5033707;28;20100;-71
2021/01/20 00:33:20;;;;;;;6.72;4.35;;;;;;;;;;5033575;28;20037;-71
2021/01/20 00:35:46;;;;;;;7.38;4.90;;;;;;;;;;5032665;28;20101;-70
2021/01/20 00:38:11;;;;;;;6.43;4.72;;;;;;;;;;5033690;28;20083;-70
2021/01/20 00:40:37;;;;;;;6.40;4.90;;;;;;;;;;5033599;28;20020;-70
2021/01/20 00:43:02;;;;;;;5.10;4.47;;;;;;;;;;5032914;28;20033;-70
2021/01/20 00:45:30;;;;;;;5.75;5.10;;;;;;;;;;5033704;28;20472;-70
2021/01/20 00:47:56;;;;;;;6.38;4.70;;;;;;;;;;5033465;28;20055;-70
2021/01/20 00:50:21;;;;;;;4.63;3.85;;;;;;;;;;5032003;28;20112;-71
2021/01/20 00:52:48;;;;;;;4.57;4.07;;;;;;;;;;5032084;28;20099;-71
2021/01/20 00:55:15;;;;;;;4.53;4.13;;;;;;;;;;5065392;28;20043;-71
2021/01/20 00:57:45;;;;;;;5.50;4.05;;;;;;;;;;5032086;28;20526;-71
2021/01/20 01:00:12;;;;;;;7.05;4.55;;;;;;;;;;5015827;28;20033;-71
2021/01/20 01:02:43;;;;;;;4.93;4.18;;;;;;;;;;5033147;28;20041;-71
2021/01/20 01:05:10;;;;;;;4.93;3.95;;;;;;;;;;5031910;28;20376;-72
2021/01/20 01:07:35;;;;;;;5.63;4.40;;;;;;;;;;5031882;28;20107;-72
2021/01/20 01:10:01;;;;;;;4.53;3.70;;;;;;;;;;5033256;28;20025;-71
2021/01/20 01:12:50;;;;;;;6.80;4.25;;;;;;;;;;5032883;28;20029;-71
2021/01/20 01:15:17;;;;;;;6.40;4.10;;;;;;;;;;5031842;28;20040;-71
2021/01/20 01:17:42;;;;;;;5.68;3.83;;;;;;;;;;5015396;28;20018;-71
2021/01/20 01:20:09;;;;;;;5.18;4.25;;;;;;;;;;5032010;28;20037;-71
2021/01/20 01:22:35;;;;;;;5.70;4.45;;;;;;;;;;5034614;28;20021;-72
2021/01/20 01:25:01;;;;;;;6.15;4.05;;;;;;;;;;5035895;28;20029;-72
2021/01/20 01:27:27;;;;;;;6.05;4.50;;;;;;;;;;5035659;28;20028;-72
2021/01/20 01:29:58;;;;;;;5.78;4.18;;;;;;;;;;5035412;28;20033;-72
2021/01/20 01:32:35;;;;;;;4.97;4.07;;;;;;;;;;5036826;28;20033;-72
2021/01/20 01:35:04;;;;;;;4.95;4.30;;;;;;;;;;5035667;28;20030;-71
2021/01/20 01:37:30;;;;;;;5.70;4.30;;;;;;;;;;5035228;28;20013;-72
2021/01/20 01:40:08;;;;;;;5.80;4.07;;;;;;;;;;5036895;28;20565;-71
2021/01/20 01:42:46;;;;;;;5.10;4.20;;;;;;;;;;5035385;28;20029;-71
2021/01/20 01:45:12;;;;;;;5.55;3.97;;;;;;;;;;5036560;28;20052;-71
2021/01/20 01:47:37;;;;;;;4.00;3.60;;;;;;;;;;5068933;28;20063;-71
2021/01/20 01:50:05;;;;;;;4.70;4.15;;;;;;;;;;5035141;28;20028;-71
2021/01/20 01:52:33;;;;;;;6.03;3.97;;;;;;;;;;5036378;28;20075;-71
2021/01/20 01:55:19;;;;;;;4.78;4.28;;;;;;;;;;5035034;28;20047;-71
2021/01/20 01:58:03;;;;;;;5.22;4.40;;;;;;;;;;5036686;28;20088;-71
2021/01/20 02:00:32;;;;;;;4.18;3.78;;;;;;;;;;5035080;28;20125;-71
2021/01/20 02:03:16;;;;;;;5.25;4.38;;;;;;;;;;5035043;28;20036;-71
2021/01/20 02:05:44;;;;;;;4.88;4.25;;;;;;;;;;5034758;28;20137;-71
2021/01/20 02:08:09;;;;;;;4.60;4.07;;;;;;;;;;5034598;28;20068;-71
2021/01/20 02:10:45;;;;;;;4.55;4.10;;;;;;;;;;5034804;28;20029;-71
2021/01/20 02:13:28;;;;;;;5.18;4.05;;;;;;;;;;5036081;28;20558;-71
2021/01/20 02:16:22;;;;;;;5.30;4.30;;;;;;;;;;5027477;28;20048;-71
2021/01/20 02:18:52;;;;;;;4.25;3.78;;;;;;;;;;5034622;28;20530;-71
2021/01/20 02:21:43;;;;;;;4.05;3.65;;;;;;;;;;5034819;28;20387;-71
2021/01/20 02:24:37;;;;;;;4.50;4.10;;;;;;;;;;5035680;28;20112;-70
2021/01/20 02:27:33;;;;;;;4.45;3.50;;;;;;;;;;5034894;28;20084;-70
2021/01/20 02:30:13;;;;;;;5.60;3.90;;;;;;;;;;5035489;28;20036;-70
2021/01/20 02:32:54;;;;;;;4.38;3.78;;;;;;;;;;5036042;28;20038;-71
2021/01/20 02:35:54;;;;;;;4.53;3.67;;;;;;;;;;5034192;28;20570;-71
2021/01/20 02:38:20;;;;;;;4.22;3.80;;;;;;;;;;5034309;28;20118;-71
2021/01/20 02:40:57;;;;;;;3.88;3.55;;;;;;;;;;5019524;28;20024;-71
2021/01/20 02:43:42;;;;;;;3.88;3.50;;;;;;;;;;5031002;28;20049;-70
2021/01/20 02:46:27;;;;;;;4.25;3.70;;;;;;;;;;5035718;28;20167;-70
2021/01/20 02:48:54;;;;;;;4.45;4.03;;;;;;;;;;5067375;28;20026;-71
2021/01/20 02:51:26;;;;;;;4.38;3.97;;;;;;;;;;5035344;28;20455;-71
2021/01/20 02:54:15;;;;;;;4.53;3.67;;;;;;;;;;5043410;28;20045;-71
2021/01/20 02:57:01;;;;;;;4.65;4.15;;;;;;;;;;5035625;28;20040;-71
2021/01/20 02:59:38;;;;;;;3.70;3.17;;;;;;;;;;5034125;28;20441;-71
2021/01/20 03:02:26;;;;;;;4.70;3.78;;;;;;;;;;5035207;28;20033;-71
2021/01/20 03:04:52;;;;;;;4.80;3.88;;;;;;;;;;5035117;28;20029;-71
2021/01/20 03:07:19;;;;;;;4.97;4.03;;;;;;;;;;5034403;28;20042;-71
2021/01/20 03:09:45;;;;;;;4.43;3.63;;;;;;;;;;5035711;28;20380;-71
2021/01/20 03:12:11;;;;;;;3.85;3.50;;;;;;;;;;5033966;28;20094;-71
2021/01/20 03:14:37;;;;;;;4.05;3.53;;;;;;;;;;5034917;28;20563;-71
2021/01/20 03:17:02;;;;;;;3.70;3.38;;;;;;;;;;5034981;28;20014;-71
2021/01/20 03:19:28;;;;;;;3.53;3.22;;;;;;;;;;5035235;28;20480;-71
2021/01/20 03:21:53;;;;;;;4.13;3.72;;;;;;;;;;5034816;28;20043;-71
2021/01/20 03:24:18;;;;;;;3.95;3.45;;;;;;;;;;5034176;28;20038;-71
2021/01/20 03:26:45;;;;;;;4.38;3.97;;;;;;;;;;5034928;28;20032;-71
2021/01/20 03:29:11;;;;;;;4.50;3.63;;;;;;;;;;5034562;28;20116;-71
2021/01/20 03:31:36;;;;;;;4.50;3.90;;;;;;;;;;5034778;28;20052;-70
2021/01/20 03:34:02;;;;;;;4.00;3.60;;;;;;;;;;5034809;28;20033;-70
2021/01/20 03:36:27;;;;;;;5.38;4.75;;;;;;;;;;5034817;28;20509;-71
2021/01/20 03:38:53;;;;;;;4.80;4.13;;;;;;;;;;5034427;28;20041;-71
2021/01/20 03:41:20;;;;;;;4.28;3.88;;;;;;;;;;5034658;28;20087;-71
2021/01/20 03:43:45;;;;;;;4.15;3.75;;;;;;;;;;5033767;28;20107;-72
2021/01/20 03:46:11;;;;;;;4.30;3.90;;;;;;;;;;5034140;28;20484;-71
2021/01/20 03:48:36;;;;;;;4.53;3.42;;;;;;;;;;5033298;28;20034;-71
2021/01/20 03:51:02;;;;;;;3.80;3.50;;;;;;;;;;5034276;28;20471;-70
2021/01/20 03:53:27;;;;;;;3.45;3.17;;;;;;;;;;5034505;28;20147;-71
2021/01/20 03:55:53;;;;;;;4.65;3.60;;;;;;;;;;5034296;28;20167;-71
2021/01/20 03:58:19;;;;;;;4.45;3.65;;;;;;;;;;5033938;28;20045;-72
2021/01/20 04:00:44;;;;;;;3.80;3.25;;;;;;;;;;5033593;28;20033;-72
2021/01/20 04:03:10;;;;;;;3.78;3.22;;;;;;;;;;5033679;28;20029;-72
2021/01/20 04:05:58;;;;;;;4.55;3.95;;;;;;;;;;5032687;28;20033;-71
2021/01/20 04:08:24;;;;;;;3.47;3.13;;;;;;;;;;5033213;28;20053;-71
2021/01/20 04:10:49;;;;;;;4.75;3.97;;;;;;;;;;5033617;28;20038;-71
2021/01/20 04:13:15;;;;;;;6.75;4.70;;;;;;;;;;5032570;28;20036;-71
2021/01/20 04:15:40;;;;;;;10.63;5.18;;;;;;;;;;5032879;28;20023;-71
2021/01/20 04:18:06;;;;;;;7.60;4.70;;;;;;;;;;5032843;28;20476;-72
2021/01/20 04:20:32;;;;;;;8.70;5.15;;;;;;;;;;5032466;28;20057;-71
2021/01/20 04:22:58;;;;;;;5.72;4.35;;;;;;;;;;5032885;28;20152;-71
2021/01/20 04:25:24;;;;;;;5.97;4.70;;;;;;;;;;5032878;28;20017;-71
2021/01/20 04:27:49;;;;;;;7.25;5.03;;;;;;;;;;5064932;28;20036;-71
2021/01/20 04:30:15;;;;;;;4.68;4.03;;;;;;;;;;5015007;28;20063;-70
2021/01/20 04:32:40;;;;;;;3.88;3.42;;;;;;;;;;5033385;28;20029;-71
2021/01/20 04:35:08;;;;;;;5.22;4.22;;;;;;;;;;5032938;28;20048;-71
2021/01/20 04:37:34;;;;;;;4.32;3.60;;;;;;;;;;5032770;28;20067;-71
2021/01/20 04:39:59;;;;;;;3.90;3.45;;;;;;;;;;5032538;28;20194;-71
2021/01/20 04:42:25;;;;;;;4.53;4.07;;;;;;;;;;5032584;28;20033;-71
2021/01/20 04:44:51;;;;;;;4.80;3.83;;;;;;;;;;5064498;28;20022;-70
2021/01/20 04:47:16;;;;;;;4.32;3.25;;;;;;;;;;5032726;28;20392;-70
2021/01/20 04:49:44;;;;;;;3.70;3.38;;;;;;;;;;5032983;28;20018;-71
2021/01/20 04:52:14;;;;;;;3.80;3.35;;;;;;;;;;5032846;28;20368;-71
2021/01/20 04:54:40;;;;;;;4.30;3.50;;;;;;;;;;5032631;28;20364;-71
2021/01/20 04:57:05;;;;;;;4.70;4.00;;;;;;;;;;5036183;28;20030;-71
2021/01/20 04:59:31;;;;;;;4.13;3.72;;;;;;;;;;5036573;28;20063;-71
2021/01/20 05:01:57;;;;;;;3.65;3.28;;;;;;;;;;5036684;28;20118;-71
2021/01/20 05:04:22;;;;;;;4.13;3.75;;;;;;;;;;5036651;28;20031;-72
2021/01/20 05:06:48;;;;;;;3.88;3.50;;;;;;;;;;5036099;28;20037;-71
2021/01/20 05:09:16;;;;;;;5.03;3.75;;;;;;;;;;5036512;28;20053;-71
2021/01/20 05:11:43;;;;;;;3.65;3.25;;;;;;;;;;5037005;28;20025;-70
2021/01/20 05:14:13;;;;;;;4.07;3.65;;;;;;;;;;5036400;28;20044;-70
2021/01/20 05:16:39;;;;;;;4.15;3.78;;;;;;;;;;5035819;28;20590;-70
2021/01/20 05:19:05;;;;;;;5.70;3.90;;;;;;;;;;5036944;28;20478;-70
2021/01/20 05:21:31;;;;;;;5.38;4.63;;;;;;;;;;5036342;28;20033;-70
2021/01/20 05:24:22;;;;;;;4.97;4.03;;;;;;;;;;5035547;28;20025;-69
2021/01/20 05:26:49;;;;;;;4.97;3.45;;;;;;;;;;5065657;28;20041;-70
2021/01/20 05:29:15;;;;;;;5.32;3.72;;;;;;;;;;5035437;28;20383;-70
2021/01/20 05:31:40;;;;;;;5.68;4.78;;;;;;;;;;5035356;28;20029;-69
2021/01/20 05:34:26;;;;;;;6.75;6.05;;;;;;;;;;5035233;28;20028;-69
2021/01/20 05:37:04;;;;;;;3.75;3.22;;;;;;;;;;5067782;28;20132;-69
2021/01/20 05:39:30;;;;;;;8.95;4.85;;;;;;;;;;5035396;28;20029;-69
2021/01/20 05:41:59;;;;;;;6.93;5.63;;;;;;;;;;5035376;28;20360;-68
2021/01/20 05:44:25;;;;;;;6.35;4.68;;;;;;;;;;5035282;28;20025;-69
2021/01/20 05:46:50;;;;;;;6.15;5.55;;;;;;;;;;5035455;28;20527;-69
2021/01/20 05:49:22;;;;;;;8.30;6.20;;;;;;;;;;5036061;28;20025;-69
2021/01/20 05:51:48;;;;;;;8.32;6.05;;;;;;;;;;5034096;28;20030;-69
2021/01/20 05:54:28;;;;;;;10.35;6.95;;;;;;;;;;5035524;28;20032;-68
2021/01/20 05:56:54;;;;;;;6.85;4.78;;;;;;;;;;5035831;28;20396;-68
2021/01/20 05:59:29;;;;;;;8.75;5.68;;;;;;;;;;5035423;28;20014;-70
2021/01/20 06:01:55;;;;;;;7.15;4.93;;;;;;;;;;5035641;28;20080;-70
2021/01/20 06:04:21;;;;;;;6.75;4.22;;;;;;;;;;5035453;28;20108;-71
2021/01/20 06:06:47;;;;;;;6.68;4.85;;;;;;;;;;5033576;28;20121;-70
2021/01/20 06:09:13;;;;;;;8.63;6.53;;;;;;;;;;5034488;28;20034;-70
2021/01/20 06:11:38;;;;;;;11.60;7.75;;;;;;;;;;5035059;28;20108;-70
2021/01/20 06:14:04;;;;;;;10.25;7.68;;;;;;;;;;5035131;28;20051;-70
2021/01/20 06:16:33;;;;;;;8.77;5.18;;;;;;;;;;5034471;28;20079;-70
2021/01/20 06:19:08;;;;;;;8.70;7.80;;;;;;;;;;5035884;28;20051;-70
2021/01/20 06:21:35;;;;;;;10.80;9.13;;;;;;;;;;5035143;28;20119;-70
2021/01/20 06:24:06;;;;;;;10.82;8.70;;;;;;;;;;4998196;28;20022;-70
2021/01/20 06:26:33;;;;;;;8.43;5.65;;;;;;;;;;5015995;28;20034;-70
2021/01/20 06:29:02;;;;;;;10.10;7.63;;;;;;;;;;5015787;28;20025;-70
2021/01/20 06:31:28;;;;;;;6.78;6.05;;;;;;;;;;5016017;28;20037;-70
2021/01/20 06:33:54;;;;;;;10.20;7.47;;;;;;;;;;5015936;28;20018;-70
2021/01/20 06:36:49;;;;;;;10.05;6.57;;;;;;;;;;5015996;28;20391;-70
2021/01/20 06:39:28;;;;;;;7.05;4.47;;;;;;;;;;5010707;28;20046;-70
2021/01/20 06:41:57;;;;;;;12.45;7.00;;;;;;;;;;5015636;28;20038;-70
2021/01/20 06:44:23;;;;;;;7.43;5.35;;;;;;;;;;5015391;28;20029;-70
2021/01/20 06:46:57;;;;;;;6.05;5.38;;;;;;;;;;5015327;28;20026;-69
2021/01/20 06:49:23;;;;;;;4.22;3.75;;;;;;;;;;5015722;28;20022;-70
2021/01/20 06:52:08;;;;;;;9.43;6.40;;;;;;;;;;5014853;28;20025;-70
2021/01/20 06:54:35;;;;;;;8.10;6.07;;;;;;;;;;5013947;28;20468;-70
2021/01/20 06:57:01;;;;;;;8.90;6.78;;;;;;;;;;5013472;28;20018;-69
2021/01/20 06:59:30;;;;;;;5.90;5.22;;;;;;;;;;5013462;28;20392;-70
2021/01/20 07:02:09;;;;;;;7.32;5.80;;;;;;;;;;5013942;28;20415;-69
2021/01/20 07:04:38;;;;;;;9.02;6.65;;;;;;;;;;5014119;28;20488;-69
2021/01/20 07:07:07;;;;;;;8.20;6.93;;;;;;;;;;5014084;28;20046;-69
2021/01/20 07:09:52;;;;;;;9.23;7.55;;;;;;;;;;5028474;28;20029;-70
2021/01/20 07:12:19;;;;;;;9.57;6.82;;;;;;;;;;5034405;28;20057;-69
2021/01/20 07:14:45;;;;;;;8.38;6.65;;;;;;;;;;5016413;28;20025;-71
2021/01/20 07:17:11;;;;;;;7.85;6.53;;;;;;;;;;5034215;28;20021;-70
2021/01/20 07:19:38;;;;;;;6.35;5.70;;;;;;;;;;5033239;28;20455;-68
2021/01/20 07:22:04;;;;;;;5.75;5.25;;;;;;;;;;5034184;28;20033;-68
2021/01/20 07:24:29;;;;;;;7.70;6.35;;;;;;;;;;5033698;28;20033;-67
2021/01/20 07:26:55;;;;;;;5.63;4.82;;;;;;;;;;5033856;28;20033;-68
2021/01/20 07:29:24;;;;;;;5.47;4.63;;;;;;;;;;5033852;28;20022;-68
2021/01/20 07:31:51;;;;;;;6.10;4.90;;;;;;;;;;5032445;28;20032;-68
2021/01/20 07:34:16;;;;;;;6.03;4.60;;;;;;;;;;5032467;28;20384;-68
2021/01/20 07:36:42;;;;;;;7.38;5.82;;;;;;;;;;5033759;28;20033;-67
2021/01/20 07:39:20;;;;;;;5.93;5.32;;;;;;;;;;5033698;28;20421;-67
2021/01/20 07:41:56;;;;;;;7.30;6.28;;;;;;;;;;5033393;28;20036;-68
2021/01/20 07:44:23;;;;;;;6.13;5.53;;;;;;;;;;5032063;28;20033;-67
2021/01/20 07:46:57;;;;;;;4.50;4.10;;;;;;;;;;5033547;28;20017;-67
2021/01/20 07:49:23;;;;;;;6.53;5.57;;;;;;;;;;5033478;28;20037;-68
2021/01/20 07:51:58;;;;;;;9.85;7.85;;;;;;;;;;5033248;28;20017;-67
2021/01/20 07:54:24;;;;;;;12.45;8.75;;;;;;;;;;5033458;28;20512;-68
2021/01/20 07:56:49;;;;;;;10.40;8.48;;;;;;;;;;5031625;28;20017;-68
2021/01/20 07:59:16;;;;;;;5.55;5.00;;;;;;;;;;5033445;28;20037;-68
2021/01/20 08:01:42;;;;;;;6.57;5.70;;;;;;;;;;5033345;28;20033;-68
2021/01/20 08:04:17;;;;;;;8.25;6.57;;;;;;;;;;5033277;28;20036;-68
2021/01/20 08:06:42;;;;;;;5.05;4.65;;;;;;;;;;5033053;28;20025;-68
2021/01/20 08:09:08;;;;;;;5.82;5.32;;;;;;;;;;5032165;28;20040;-67
2021/01/20 08:11:33;;;;;;;4.82;4.35;;;;;;;;;;5031549;28;20028;-68
2021/01/20 08:14:00;;;;;;;5.53;5.03;;;;;;;;;;5033430;28;20057;-67
2021/01/20 08:16:27;;;;;;;5.15;4.65;;;;;;;;;;5033797;28;20095;-68
2021/01/20 08:18:52;;;;;;;5.05;4.55;;;;;;;;;;5033606;28;20112;-68
2021/01/20 08:21:18;;;;;;;4.43;4.03;;;;;;;;;;5033880;28;20524;-68
2021/01/20 08:23:44;;;;;;;3.95;3.55;;;;;;;;;;5032354;28;20025;-69
2021/01/20 08:26:09;;;;;;;5.70;5.05;;;;;;;;;;5033207;28;20017;-68
2021/01/20 08:28:35;;;;;;;5.20;4.03;;;;;;;;;;5033268;28;20479;-68
2021/01/20 08:31:19;;;;;;;4.68;4.28;;;;;;;;;;5032714;28;20009;-68
2021/01/20 08:33:45;;;;;;;5.43;4.82;;;;;;;;;;5033480;28;20036;-67
2021/01/20 08:36:12;;;;;;;7.13;6.13;;;;;;;;;;5033526;28;20017;-67
2021/01/20 08:38:38;;;;;;;7.22;4.35;;;;;;;;;;5033539;28;20128;-67
2021/01/20 08:41:11;;;;;;;4.05;3.55;;;;;;;;;;5033377;28;20510;-68
2021/01/20 08:43:36;;;;;;;6.43;5.55;;;;;;;;;;5033336;28;20108;-67
2021/01/20 08:46:21;;;;;;;32.83;11.10;;;;;;;;;;5033353;28;20447;-67
2021/01/20 08:48:53;;;;;;;12.40;7.60;;;;;;;;;;5033590;28;20164;-67
2021/01/20 08:51:18;;;;;;;8.18;6.18;;;;;;;;;;5033285;28;20051;-67
2021/01/20 08:53:44;;;;;;;8.13;6.50;;;;;;;;;;5033409;28;20105;-67
2021/01/20 08:56:10;;;;;;;5.75;4.20;;;;;;;;;;5032946;28;20399;-68
2021/01/20 08:58:36;;;;;;;6.90;5.13;;;;;;;;;;5033302;28;20029;-68
2021/01/20 09:01:22;;;;;;;6.50;4.95;;;;;;;;;;5033516;28;20045;-68
2021/01/20 09:04:06;;;;;;;5.63;3.75;;;;;;;;;;5033383;28;20065;-67
2021/01/20 09:06:32;;;;;;;5.65;3.97;;;;;;;;;;5032437;28;20036;-67
2021/01/20 09:08:57;;;;;;;15.48;9.48;;;;;;;;;;5032125;28;20116;-67
2021/01/20 09:11:24;;;;;;;13.38;8.38;;;;;;;;;;5033079;28;20022;-67
2021/01/20 09:13:55;;;;;;;7.55;5.78;;;;;;;;;;5033235;28;20041;-67
2021/01/20 09:16:25;;;;;;;7.07;5.47;;;;;;;;;;5024675;28;20342;-67
2021/01/20 09:18:51;;;;;;;6.57;5.07;;;;;;;;;;5013403;28;20477;-67
2021/01/20 09:21:17;;;;;;;5.30;4.45;;;;;;;;;;5013135;28;20036;-67
2021/01/20 09:23:42;;;;;;;6.07;5.07;;;;;;;;;;5013439;28;20017;-67
2021/01/20 09:26:09;;;;;;;6.28;4.05;;;;;;;;;;5013135;28;20046;-68
2021/01/20 09:28:35;;;;;;;5.03;4.03;;;;;;;;;;5012941;28;20018;-67
2021/01/20 09:31:01;;;;;;;5.38;4.75;;;;;;;;;;5013457;28;20032;-67
2021/01/20 09:33:26;;;;;;;3.35;2.47;;;;;;;;;;5013489;28;20101;-67
2021/01/20 09:35:52;;;;;;;4.35;3.88;;;;;;;;;;5012200;28;20473;-67
2021/01/20 09:38:18;;;;;;;4.72;3.25;;;;;;;;;;5013169;28;20026;-68
2021/01/20 09:40:43;;;;;;;3.92;3.55;;;;;;;;;;5013189;28;20034;-68
2021/01/20 09:43:09;;;;;;;4.05;3.38;;;;;;;;;;5013611;28;20528;-67
2021/01/20 09:45:34;;;;;;;4.70;3.50;;;;;;;;;;5016168;28;20034;-69
2021/01/20 09:48:02;;;;;;;4.57;3.47;;;;;;;;;;5017279;28;20057;-69
2021/01/20 09:50:33;;;;;;;1.98;1.83;;;;;;;;;;5016714;28;20033;-67
2021/01/20 09:53:00;;;;;;;3.60;3.22;;;;;;;;;;5016805;28;20033;-68
2021/01/20 09:55:25;;;;;;;1.70;1.40;;;;;;;;;;5016854;28;20025;-68
2021/01/20 09:57:51;;;;;;;2.80;2.35;;;;;;;;;;5016656;28;20038;-67
2021/01/20 10:00:17;;;;;;;2.70;2.00;;;;;;;;;;5016612;28;20112;-68
2021/01/20 10:02:42;;;;;;;4.10;3.58;;;;;;;;;;5016449;28;20040;-68
2021/01/20 10:05:08;;;;;;;2.97;2.65;;;;;;;;;;5016420;28;20360;-68
2021/01/20 10:07:34;;;;;;;3.42;3.05;;;;;;;;;;5014328;28;20473;-69
2021/01/20 10:10:00;;;;;;;4.65;3.55;;;;;;;;;;5016476;28;20117;-68
2021/01/20 10:12:25;;;;;;;4.10;3.00;;;;;;;;;;5016175;28;20022;-69
2021/01/20 10:14:51;;;;;;;2.25;1.70;;;;;;;;;;5016213;28;20053;-68
2021/01/20 10:17:16;;;;;;;2.70;2.50;;;;;;;;;;5016400;28;20041;-68
2021/01/20 10:19:43;;;;;;;4.10;3.05;;;;;;;;;;5016428;28;20026;-68
2021/01/20 10:22:09;;;;;;;5.18;3.72;;;;;;;;;;5016042;28;20072;-68
2021/01/20 10:24:34;;;;;;;2.92;2.47;;;;;;;;;;5015893;28;20057;-68
2021/01/20 10:27:00;;;;;;;4.35;2.72;;;;;;;;;;5016260;28;20061;-68
2021/01/20 10:29:26;;;;;;;5.47;2.72;;;;;;;;;;5014776;28;20018;-69
2021/01/20 10:31:52;;;;;;;6.00;3.85;;;;;;;;;;5016124;28;20053;-68
2021/01/20 10:34:17;;;;;;;6.47;3.75;;;;;;;;;;5014899;28;20465;-66
2021/01/20 10:36:44;;;;;;;6.70;4.03;;;;;;;;;;5016857;28;20030;-66
2021/01/20 10:39:10;;;;;;;9.25;5.68;;;;;;;;;;5035389;28;20026;-66
2021/01/20 10:41:36;;;;;;;5.57;4.57;;;;;;;;;;5035153;28;20033;-67
2021/01/20 10:44:02;;;;;;;5.95;3.85;;;;;;;;;;5035415;28;20124;-67
2021/01/20 10:46:31;;;;;;;7.22;4.75;;;;;;;;;;5034501;28;20104;-67
2021/01/20 10:48:57;;;;;;;5.88;4.28;;;;;;;;;;5034380;28;20025;-67
2021/01/20 10:51:24;;;;;;;5.13;4.15;;;;;;;;;;5035145;28;20464;-69
2021/01/20 10:53:50;;;;;;;6.28;3.95;;;;;;;;;;5034849;28;20033;-71
2021/01/20 10:56:15;;;;;;;7.07;4.70;;;;;;;;;;5034685;28;20468;-70
2021/01/20 10:58:41;;;;;;;13.43;6.05;;;;;;;;;;5034814;28;20021;-70
2021/01/20 11:01:08;;;;;;;4.82;3.75;;;;;;;;;;5033765;28;20030;-70
2021/01/20 11:03:33;;;;;;;4.53;3.40;;;;;;;;;;5034497;28;20017;-68
2021/01/20 11:05:59;;;;;;;5.65;3.40;;;;;;;;;;5034731;28;20444;-68
2021/01/20 11:08:26;;;;;;;5.30;4.10;;;;;;;;;;5034793;28;20054;-67
2021/01/20 11:10:51;;;;;;;5.90;3.85;;;;;;;;;;5034526;28;20113;-67
2021/01/20 11:13:17;;;;;;;6.18;4.40;;;;;;;;;;5034460;28;20112;-67
2021/01/20 11:15:46;;;;;;;7.57;4.28;;;;;;;;;;5033243;28;20418;-67
2021/01/20 11:18:13;;;;;;;5.72;3.53;;;;;;;;;;5034666;28;20033;-67
2021/01/20 11:20:39;;;;;;;6.78;4.35;;;;;;;;;;5033874;28;20079;-68
2021/01/20 11:23:05;;;;;;;6.80;4.47;;;;;;;;;;5034122;28;20025;-68
2021/01/20 11:25:32;;;;;;;6.03;4.28;;;;;;;;;;5034713;28;20427;-68
2021/01/20 11:27:58;;;;;;;6.75;3.80;;;;;;;;;;5034651;28;20567;-68
2021/01/20 11:30:25;;;;;;;6.45;4.05;;;;;;;;;;5034711;28;20029;-68
2021/01/20 11:32:50;;;;;;;5.95;3.25;;;;;;;;;;5034724;28;20047;-68
2021/01/20 11:35:16;;;;;;;7.53;4.78;;;;;;;;;;5034487;28;20104;-68
2021/01/20 11:37:44;;;;;;;6.72;3.72;;;;;;;;;;5033532;28;20359;-68
2021/01/20 11:40:09;;;;;;;6.93;4.43;;;;;;;;;;5033440;28;20033;-68
2021/01/20 11:42:35;;;;;;;7.97;4.85;;;;;;;;;;5032922;28;20025;-68
2021/01/20 11:45:01;;;;;;;4.32;3.45;;;;;;;;;;5033001;28;20037;-68
2021/01/20 11:47:29;;;;;;;6.20;3.35;;;;;;;;;;5034076;28;20045;-68
2021/01/20 11:49:55;;;;;;;6.60;3.42;;;;;;;;;;5034167;28;20025;-68
2021/01/20 11:52:21;;;;;;;6.57;4.40;;;;;;;;;;5034127;28;20113;-68
2021/01/20 11:54:47;;;;;;;6.55;3.97;;;;;;;;;;5034220;28;20037;-68
2021/01/20 11:57:13;;;;;;;4.35;3.40;;;;;;;;;;5034351;28;20361;-68
2021/01/20 11:59:38;;;;;;;5.18;3.42;;;;;;;;;;5033927;28;20037;-68
2021/01/20 12:02:05;;;;;;;11.70;6.30;;;;;;;;;;5033895;28;20452;-67
2021/01/20 12:04:30;;;;;;;8.70;5.50;;;;;;;;;;5033789;28;20531;-67
2021/01/20 12:06:56;;;;;;;7.22;4.72;;;;;;;;;;5033129;28;20060;-67
2021/01/20 12:09:21;;;;;;;6.38;4.25;;;;;;;;;;5033945;28;20065;-67
2021/01/20 12:11:47;;;;;;;9.20;5.53;;;;;;;;;;5033841;28;20488;-67
2021/01/20 12:14:13;;;;;;;11.52;6.93;;;;;;;;;;5033991;28;20068;-68
2021/01/20 12:16:39;;;;;;;11.27;5.90;;;;;;;;;;5033889;28;20044;-67
2021/01/20 12:19:04;;;;;;;6.22;4.80;;;;;;;;;;5033957;28;20037;-68
2021/01/20 12:21:30;;;;;;;12.70;6.40;;;;;;;;;;5033827;28;20487;-68
2021/01/20 12:23:56;;;;;;;12.30;7.10;;;;;;;;;;5033881;28;20388;-67
2021/01/20 12:26:22;;;;;;;11.77;6.95;;;;;;;;;;5033774;28;20025;-67
2021/01/20 12:28:47;;;;;;;16.65;9.70;;;;;;;;;;5033688;28;20033;-67
2021/01/20 12:31:13;;;;;;;17.00;10.38;;;;;;;;;;5033616;28;20010;-66
2021/01/20 12:33:38;;;;;;;17.00;8.80;;;;;;;;;;5032968;28;20041;-66
2021/01/20 12:36:04;;;;;;;14.82;7.13;;;;;;;;;;5031528;28;20024;-67
2021/01/20 12:38:30;;;;;;;22.63;11.93;;;;;;;;;;5030203;28;20033;-67
2021/01/20 12:40:56;;;;;;;13.43;8.20;;;;;;;;;;5032183;28;20040;-68
2021/01/20 12:43:22;;;;;;;15.50;9.55;;;;;;;;;;5032649;28;20068;-68
2021/01/20 12:45:47;;;;;;;13.75;8.02;;;;;;;;;;5032187;28;20041;-69
2021/01/20 12:48:13;;;;;;;12.95;7.15;;;;;;;;;;5032093;28;20354;-68
2021/01/20 12:50:39;;;;;;;10.88;6.50;;;;;;;;;;5032522;28;20032;-67
2021/01/20 12:53:04;;;;;;;11.27;6.50;;;;;;;;;;5033180;28;20029;-68
2021/01/20 12:55:30;;;;;;;8.30;5.45;;;;;;;;;;5029295;28;20041;-67
2021/01/20 12:57:55;;;;;;;8.32;5.50;;;;;;;;;;5032463;28;20021;-67
2021/01/20 13:00:21;;;;;;;7.82;5.35;;;;;;;;;;5033284;28;20025;-67
2021/01/20 13:02:47;;;;;;;10.48;5.85;;;;;;;;;;5033077;28;20037;-67
2021/01/20 13:05:12;;;;;;;8.48;5.18;;;;;;;;;;5014152;28;20033;-67
2021/01/20 13:07:38;;;;;;;8.65;4.97;;;;;;;;;;5032640;28;20122;-67
2021/01/20 13:10:04;;;;;;;10.00;5.18;;;;;;;;;;5032398;28;20041;-68
2021/01/20 13:12:29;;;;;;;11.25;6.20;;;;;;;;;;5033028;28;20063;-68
2021/01/20 13:14:55;;;;;;;6.88;4.63;;;;;;;;;;5032016;28;20025;-67
2021/01/20 13:17:20;;;;;;;9.20;5.63;;;;;;;;;;5032576;28;20527;-68
2021/01/20 13:19:47;;;;;;;5.90;4.18;;;;;;;;;;5037071;28;20044;-68
2021/01/20 13:22:12;;;;;;;9.45;5.28;;;;;;;;;;5036976;28;20114;-68
2021/01/20 13:24:38;;;;;;;8.55;5.50;;;;;;;;;;5036728;28;20077;-68
2021/01/20 13:27:03;;;;;;;8.15;4.85;;;;;;;;;;5036690;28;20049;-67
2021/01/20 13:29:29;;;;;;;8.27;5.10;;;;;;;;;;5037239;28;20437;-67
2021/01/20 13:31:54;;;;;;;8.75;5.10;;;;;;;;;;5037065;28;20085;-67
2021/01/20 13:34:20;;;;;;;7.65;4.82;;;;;;;;;;5036777;28;20431;-67
2021/01/20 13:36:45;;;;;;;5.90;4.10;;;;;;;;;;5036713;28;20096;-67
2021/01/20 13:39:12;;;;;;;6.38;4.05;;;;;;;;;;5036012;28;20033;-67
2021/01/20 13:41:38;;;;;;;6.45;4.00;;;;;;;;;;5036881;28;20018;-67
2021/01/20 13:44:03;;;;;;;6.53;4.13;;;;;;;;;;5036537;28;20136;-67
2021/01/20 13:46:29;;;;;;;8.27;4.80;;;;;;;;;;5036662;28;20013;-67
2021/01/20 13:48:54;;;;;;;4.90;3.97;;;;;;;;;;5036051;28;20033;-68
2021/01/20 13:51:20;;;;;;;6.70;4.82;;;;;;;;;;5036664;28;20021;-67
2021/01/20 13:53:45;;;;;;;7.35;4.00;;;;;;;;;;5036561;28;20029;-68
2021/01/20 13:56:11;;;;;;;5.90;4.38;;;;;;;;;;5036266;28;20468;-67
2021/01/20 13:58:36;;;;;;;5.32;4.15;;;;;;;;;;5036548;28;20034;-67
2021/01/20 14:01:02;;;;;;;6.55;4.13;;;;;;;;;;5035491;28;20164;-68
2021/01/20 14:03:28;;;;;;;8.20;5.55;;;;;;;;;;5035192;28;20136;-68
2021/01/20 14:05:54;;;;;;;6.85;4.80;;;;;;;;;;5035190;28;20013;-68
2021/01/20 14:08:20;;;;;;;7.38;5.00;;;;;;;;;;5034945;28;20400;-68
2021/01/20 14:10:46;;;;;;;9.27;6.47;;;;;;;;;;5035455;28;20037;-68
2021/01/20 14:13:11;;;;;;;9.77;6.03;;;;;;;;;;5035819;28;20025;-68
2021/01/20 14:15:37;;;;;;;8.93;5.82;;;;;;;;;;5035588;28;20030;-68
2021/01/20 14:18:03;;;;;;;8.20;5.22;;;;;;;;;;5034767;28;20041;-68
2021/01/20 14:20:30;;;;;;;12.15;7.00;;;;;;;;;;5034412;28;20036;-68
2021/01/20 14:22:55;;;;;;;11.57;6.57;;;;;;;;;;5033502;28;20022;-68
2021/01/20 14:25:21;;;;;;;11.75;7.13;;;;;;;;;;5034963;28;20075;-68
2021/01/20 14:27:46;;;;;;;11.30;6.07;;;;;;;;;;5032400;28;20048;-68
2021/01/20 14:30:13;;;;;;;13.40;7.32;;;;;;;;;;5032865;28;20033;-68
2021/01/20 14:32:39;;;;;;;10.80;6.35;;;;;;;;;;5034651;28;20387;-68
2021/01/20 14:35:05;;;;;;;12.07;7.05;;;;;;;;;;5034740;28;20021;-68
2021/01/20 14:37:30;;;;;;;14.95;9.00;;;;;;;;;;5034105;28;20028;-68
2021/01/20 14:39:56;;;;;;;13.68;8.15;;;;;;;;;;5035194;28;20112;-68
2021/01/20 14:42:22;;;;;;;11.93;7.32;;;;;;;;;;5035212;28;20033;-68
2021/01/20 14:44:47;;;;;;;16.25;8.18;;;;;;;;;;5033599;28;20434;-68
2021/01/20 14:47:13;;;;;;;14.98;8.45;;;;;;;;;;5034701;28;20401;-67